Time;durP1;ratioP1;P1;durP2;ratioP2;P2;SDS_P1;SDS_P2;PMS_P1;PMS_P2;Temp;Humidity;BMP_temperature;BMP_pressure;BME280_temperature;BME280_humidity;BME280_pressure;Samples;Min_cycle;Max_cycle;Signal;HPM_P1;HPM_P2
2021/11/13 00:01:10;;;;;;;19.47;14.10;;;2.70;99.90;;;;;;5091627;28;20532;-70
2021/11/13 00:03:38;;;;;;;18.83;12.43;;;2.60;99.90;;;;;;5090832;28;20895;-70
2021/11/13 00:06:05;;;;;;;15.70;13.00;;;3.20;99.90;;;;;;5091684;28;20472;-70
2021/11/13 00:08:33;;;;;;;20.27;13.10;;;2.90;99.90;;;;;;5091071;28;20527;-70
2021/11/13 00:11:00;;;;;;;21.20;14.23;;;2.90;99.90;;;;;;5091984;28;20458;-70
2021/11/13 00:13:27;;;;;;;21.00;14.40;;;2.80;99.90;;;;;;5090633;28;20459;-70
2021/11/13 00:15:55;;;;;;;18.93;12.87;;;2.80;99.90;;;;;;5091046;28;20498;-70
2021/11/13 00:18:22;;;;;;;16.67;12.27;;;2.80;99.90;;;;;;5091848;28;20812;-70
2021/11/13 00:20:50;;;;;;;18.53;14.13;;;2.60;99.90;;;;;;5090514;28;20944;-70
2021/11/13 00:23:18;;;;;;;15.20;12.97;;;2.60;99.90;;;;;;5091217;28;20528;-70
2021/11/13 00:25:46;;;;;;;17.30;12.17;;;2.70;99.90;;;;;;5091039;28;20767;-70
2021/11/13 00:28:13;;;;;;;17.77;13.30;;;2.80;99.90;;;;;;5091497;28;20445;-70
2021/11/13 00:30:41;;;;;;;20.80;13.70;;;2.80;99.90;;;;;;5090640;28;20520;-70
2021/11/13 00:33:09;;;;;;;16.97;13.43;;;2.90;99.90;;;;;;5091111;28;20941;-70
2021/11/13 00:35:36;;;;;;;17.67;13.90;;;3.20;99.90;;;;;;5090192;28;20452;-70
2021/11/13 00:38:03;;;;;;;16.37;12.87;;;3.20;99.90;;;;;;5090821;28;20440;-70
2021/11/13 00:40:30;;;;;;;19.53;14.10;;;3.70;99.90;;;;;;5090452;28;20511;-70
2021/11/13 00:42:58;;;;;;;16.50;12.60;;;3.50;99.90;;;;;;5091000;28;20547;-70
2021/11/13 00:45:26;;;;;;;19.60;12.53;;;3.90;99.90;;;;;;5091129;28;20447;-70
2021/11/13 00:47:53;;;;;;;19.60;13.67;;;3.60;99.90;;;;;;5090575;28;20536;-70
2021/11/13 00:50:20;;;;;;;15.70;13.27;;;3.90;99.90;;;;;;5091068;28;20448;-70
2021/11/13 00:52:47;;;;;;;17.07;12.87;;;3.60;99.90;;;;;;5090448;28;20455;-70
2021/11/13 00:55:16;;;;;;;18.10;14.77;;;3.80;99.90;;;;;;5090968;28;20445;-70
2021/11/13 00:57:43;;;;;;;19.17;14.23;;;3.70;99.90;;;;;;5090623;28;20535;-70
2021/11/13 01:00:15;;;;;;;22.10;14.93;;;3.60;99.90;;;;;;5091206;28;20432;-70
2021/11/13 01:02:43;;;;;;;23.83;15.43;;;3.80;99.90;;;;;;5089128;28;20469;-70
2021/11/13 01:05:10;;;;;;;21.83;15.00;;;4.00;99.90;;;;;;5090848;28;20437;-70
2021/11/13 01:07:37;;;;;;;21.40;14.77;;;4.00;99.90;;;;;;5090631;28;20447;-69
2021/11/13 01:10:07;;;;;;;19.33;13.77;;;3.80;99.90;;;;;;5090501;28;20445;-70
2021/11/13 01:12:34;;;;;;;20.27;13.43;;;3.60;99.90;;;;;;5090644;28;20438;-70
2021/11/13 01:15:02;;;;;;;18.77;12.40;;;3.50;99.90;;;;;;5091024;28;20539;-70
2021/11/13 01:17:30;;;;;;;17.07;13.03;;;3.40;99.90;;;;;;5108353;28;20946;-70
2021/11/13 01:19:57;;;;;;;17.70;13.37;;;3.40;99.90;;;;;;5095294;28;20468;-69
2021/11/13 01:22:24;;;;;;;26.00;11.60;;;3.20;99.90;;;;;;5105910;28;20437;-70
2021/11/13 01:24:51;;;;;;;16.50;12.20;;;3.30;99.90;;;;;;5090351;28;20515;-69
2021/11/13 01:27:18;;;;;;;15.80;12.30;;;4.10;99.90;;;;;;5090602;28;21009;-70
2021/11/13 01:29:45;;;;;;;20.80;14.20;;;3.60;99.90;;;;;;5089734;28;20966;-69
2021/11/13 01:32:12;;;;;;;21.47;14.70;;;3.70;99.90;;;;;;5090980;28;20453;-70
2021/11/13 01:34:40;;;;;;;19.37;13.67;;;3.70;99.90;;;;;;5089907;28;20895;-70
2021/11/13 01:37:08;;;;;;;18.50;11.87;;;3.50;99.90;;;;;;5090897;28;20460;-70
2021/11/13 01:39:36;;;;;;;17.70;11.50;;;3.40;99.90;;;;;;5090049;28;20857;-70
2021/11/13 01:42:03;;;;;;;19.23;12.07;;;2.90;99.90;;;;;;5090658;28;20483;-69
2021/11/13 01:44:30;;;;;;;15.40;12.67;;;3.10;99.90;;;;;;5089982;28;20586;-70
2021/11/13 01:46:58;;;;;;;17.03;13.10;;;3.30;99.90;;;;;;5090130;28;20444;-70
2021/11/13 01:49:25;;;;;;;18.60;12.77;;;3.30;99.90;;;;;;5093017;28;20543;-69
2021/11/13 01:51:53;;;;;;;25.50;13.80;;;3.40;99.90;;;;;;5093319;28;20451;-69
2021/11/13 01:54:21;;;;;;;19.13;13.67;;;3.30;99.90;;;;;;5093824;28;20448;-69
2021/11/13 01:56:50;;;;;;;17.47;12.13;;;3.70;99.90;;;;;;5093320;28;20442;-69
2021/11/13 01:59:21;;;;;;;20.50;14.20;;;3.50;99.90;;;;;;5094044;28;20444;-69
2021/11/13 02:01:49;;;;;;;17.27;12.00;;;3.40;99.90;;;;;;5093245;28;20447;-70
2021/11/13 02:04:15;;;;;;;19.10;12.80;;;3.30;99.90;;;;;;5093622;28;20477;-69
2021/11/13 02:06:42;;;;;;;15.80;13.10;;;3.40;99.90;;;;;;5093361;28;20445;-69
2021/11/13 02:09:11;;;;;;;16.93;12.53;;;3.40;99.90;;;;;;5093261;28;20967;-69
2021/11/13 02:11:37;;;;;;;21.57;13.30;;;3.30;99.90;;;;;;5093618;28;20452;-69
2021/11/13 02:14:07;;;;;;;20.23;11.30;;;3.30;99.90;;;;;;5093505;28;20527;-70
2021/11/13 02:16:34;;;;;;;18.10;11.57;;;3.30;99.90;;;;;;5093207;28;20445;-69
2021/11/13 02:19:02;;;;;;;22.10;13.27;;;3.30;99.90;;;;;;5093166;28;20519;-69
2021/11/13 02:21:30;;;;;;;16.13;12.60;;;3.30;99.90;;;;;;5093579;28;20447;-69
2021/11/13 02:23:57;;;;;;;15.77;10.60;;;3.20;99.90;;;;;;5093462;28;20504;-69
2021/11/13 02:26:25;;;;;;;16.73;11.20;;;3.30;99.90;;;;;;5093889;28;20440;-69
2021/11/13 02:28:54;;;;;;;18.83;11.43;;;3.30;99.90;;;;;;5092378;28;20781;-69
2021/11/13 02:31:32;;;;;;;19.70;13.93;;;3.40;99.90;;;;;;5093783;28;20527;-69
2021/11/13 02:33:59;;;;;;;16.27;11.57;;;3.40;99.90;;;;;;5093383;28;20433;-70
2021/11/13 02:36:26;;;;;;;20.00;13.70;;;3.30;99.90;;;;;;5093441;28;20795;-69
2021/11/13 02:38:56;;;;;;;20.70;12.60;;;3.40;99.90;;;;;;5092748;28;20842;-69
2021/11/13 02:41:26;;;;;;;17.63;11.37;;;3.40;99.90;;;;;;5093232;28;20480;-69
2021/11/13 02:43:53;;;;;;;17.33;11.47;;;3.80;99.90;;;;;;5092882;28;20979;-69
2021/11/13 02:46:21;;;;;;;15.77;12.27;;;3.50;99.90;;;;;;5093215;28;20443;-69
2021/11/13 02:48:49;;;;;;;17.77;12.90;;;3.20;99.90;;;;;;5092367;28;20543;-69
2021/11/13 02:51:16;;;;;;;21.63;13.33;;;3.10;99.90;;;;;;5093476;28;20804;-69
2021/11/13 02:53:44;;;;;;;20.40;12.00;;;3.20;99.90;;;;;;5092046;28;20528;-69
2021/11/13 02:56:12;;;;;;;17.00;12.37;;;3.30;99.90;;;;;;5093229;28;20520;-69
2021/11/13 02:58:40;;;;;;;22.40;13.17;;;3.30;99.90;;;;;;5091143;28;20451;-69
2021/11/13 03:01:10;;;;;;;19.77;13.43;;;3.30;99.90;;;;;;5092103;28;20448;-69
2021/11/13 03:03:39;;;;;;;21.33;13.17;;;3.40;99.90;;;;;;5092256;28;20499;-69
2021/11/13 03:06:10;;;;;;;16.73;11.50;;;3.30;99.90;;;;;;5092847;28;20444;-69
2021/11/13 03:08:38;;;;;;;15.30;11.17;;;3.30;99.90;;;;;;5092434;28;20443;-70
2021/11/13 03:11:07;;;;;;;16.03;11.60;;;3.20;99.90;;;;;;5092533;28;20535;-70
2021/11/13 03:13:37;;;;;;;17.33;13.17;;;3.60;99.90;;;;;;5092826;28;20437;-69
2021/11/13 03:16:06;;;;;;;19.87;15.73;;;3.30;99.90;;;;;;5091616;28;20437;-69
2021/11/13 03:18:33;;;;;;;17.70;14.30;;;3.00;99.90;;;;;;5092695;28;20446;-69
2021/11/13 03:21:05;;;;;;;17.10;12.50;;;3.00;99.90;;;;;;5091961;28;20838;-69
2021/11/13 03:23:32;;;;;;;16.23;12.60;;;3.00;99.90;;;;;;5092061;28;20444;-70
2021/11/13 03:26:01;;;;;;;19.13;11.83;;;3.10;99.90;;;;;;5091997;28;20451;-69
2021/11/13 03:28:30;;;;;;;21.03;12.27;;;2.90;99.90;;;;;;5092243;28;20447;-69
2021/11/13 03:31:01;;;;;;;16.67;10.50;;;2.90;99.90;;;;;;5091272;28;20455;-69
2021/11/13 03:33:29;;;;;;;18.20;11.13;;;2.70;99.90;;;;;;5092474;28;20901;-69
2021/11/13 03:35:56;;;;;;;15.87;11.00;;;2.50;99.90;;;;;;5091439;28;20503;-69
2021/11/13 03:38:23;;;;;;;14.37;10.30;;;2.30;99.90;;;;;;5091884;28;20527;-69
2021/11/13 03:40:51;;;;;;;16.20;11.67;;;2.30;99.90;;;;;;5091257;28;20595;-69
2021/11/13 03:43:18;;;;;;;14.40;12.13;;;3.00;99.90;;;;;;5092133;28;20943;-69
2021/11/13 03:45:47;;;;;;;15.27;12.60;;;2.40;99.90;;;;;;5091505;28;20494;-70
2021/11/13 03:48:15;;;;;;;18.50;10.33;;;2.80;99.90;;;;;;5092099;28;20870;-70
2021/11/13 03:50:42;;;;;;;15.63;11.13;;;2.40;99.90;;;;;;5090900;28;20440;-70
2021/11/13 03:53:09;;;;;;;16.63;11.97;;;2.30;99.90;;;;;;5092003;28;20528;-69
2021/11/13 03:55:37;;;;;;;13.27;10.50;;;2.30;99.90;;;;;;5092110;28;20551;-69
2021/11/13 03:58:04;;;;;;;15.13;10.67;;;2.20;99.90;;;;;;5071527;28;20462;-69
2021/11/13 04:00:32;;;;;;;17.60;11.30;;;2.60;99.90;;;;;;5085257;28;20448;-69
2021/11/13 04:02:59;;;;;;;15.33;11.23;;;2.40;99.90;;;;;;5091301;28;20539;-69
2021/11/13 04:05:28;;;;;;;16.67;11.03;;;2.60;99.90;;;;;;5091299;28;20468;-69
2021/11/13 04:07:55;;;;;;;16.67;11.20;;;2.60;99.90;;;;;;5071093;28;20456;-69
2021/11/13 04:10:22;;;;;;;14.00;10.50;;;2.60;99.90;;;;;;5084244;28;20476;-69
2021/11/13 04:12:49;;;;;;;18.87;11.97;;;2.50;99.90;;;;;;5090914;28;20523;-69
2021/11/13 04:15:17;;;;;;;15.67;12.43;;;2.60;99.90;;;;;;5091342;28;20532;-69
2021/11/13 04:17:44;;;;;;;16.63;11.40;;;2.60;99.90;;;;;;5091132;28;20471;-69
2021/11/13 04:20:12;;;;;;;15.83;11.70;;;2.60;99.90;;;;;;5090644;28;20521;-69
2021/11/13 04:22:41;;;;;;;17.67;11.93;;;2.60;99.90;;;;;;5090635;28;20450;-69
2021/11/13 04:25:09;;;;;;;19.00;12.50;;;2.60;99.90;;;;;;5091501;28;20529;-69
2021/11/13 04:27:36;;;;;;;13.90;10.90;;;2.70;99.90;;;;;;5090899;28;20440;-68
2021/11/13 04:30:03;;;;;;;17.73;12.70;;;2.50;99.90;;;;;;5090887;28;20455;-68
2021/11/13 04:32:33;;;;;;;14.47;11.30;;;2.50;99.90;;;;;;5091520;28;20551;-68
2021/11/13 04:35:14;;;;;;;15.40;12.63;;;2.90;99.90;;;;;;5098702;28;20464;-68
2021/11/13 04:37:44;;;;;;;19.00;12.80;;;2.70;99.90;;;;;;5070912;28;20759;-69
2021/11/13 04:40:11;;;;;;;17.63;12.80;;;2.70;99.90;;;;;;5089535;28;20529;-68
2021/11/13 04:42:39;;;;;;;19.93;13.90;;;2.80;99.90;;;;;;5091560;28;20515;-69
2021/11/13 04:45:07;;;;;;;17.10;12.70;;;3.30;99.90;;;;;;5091250;28;20472;-68
2021/11/13 04:47:34;;;;;;;17.40;13.97;;;2.70;99.90;;;;;;5091148;28;20525;-68
2021/11/13 04:50:01;;;;;;;18.30;11.93;;;2.60;99.90;;;;;;5089979;28;20987;-69
2021/11/13 04:52:28;;;;;;;20.80;13.50;;;2.70;99.90;;;;;;5091220;28;20441;-69
2021/11/13 04:54:57;;;;;;;17.30;12.70;;;2.80;99.90;;;;;;5090504;28;20442;-69
2021/11/13 04:57:24;;;;;;;16.83;11.70;;;2.80;99.90;;;;;;5090560;28;20551;-68
2021/11/13 04:59:51;;;;;;;15.90;12.17;;;3.40;99.90;;;;;;5090416;28;20467;-69
2021/11/13 05:02:18;;;;;;;15.70;12.13;;;2.90;99.90;;;;;;5091415;28;20552;-69
2021/11/13 05:04:45;;;;;;;14.10;10.97;;;3.10;99.90;;;;;;5089949;28;20482;-68
2021/11/13 05:07:12;;;;;;;15.00;12.30;;;3.10;99.90;;;;;;5091247;28;20447;-69
2021/11/13 05:09:39;;;;;;;15.10;12.07;;;3.20;99.90;;;;;;5090561;28;20523;-69
2021/11/13 05:12:08;;;;;;;18.30;12.10;;;3.10;99.90;;;;;;5090696;28;20459;-69
2021/11/13 05:14:35;;;;;;;16.57;11.73;;;3.10;99.90;;;;;;5090379;28;20945;-69
2021/11/13 05:17:02;;;;;;;14.20;11.83;;;3.10;99.90;;;;;;5090243;28;21138;-69
2021/11/13 05:19:29;;;;;;;17.10;11.30;;;3.20;99.90;;;;;;5090198;28;20440;-69
2021/11/13 05:21:56;;;;;;;22.47;12.77;;;3.20;99.90;;;;;;5089772;28;20443;-69
2021/11/13 05:24:23;;;;;;;15.63;12.23;;;3.20;99.90;;;;;;5093334;28;20579;-69
2021/11/13 05:26:50;;;;;;;13.57;10.87;;;3.30;99.90;;;;;;5094096;28;20479;-69
2021/11/13 05:29:18;;;;;;;15.60;10.50;;;3.40;99.90;;;;;;5094771;28;20524;-70
2021/11/13 05:31:45;;;;;;;18.63;12.23;;;4.30;99.90;;;;;;5073752;28;20452;-69
2021/11/13 05:34:13;;;;;;;16.33;10.80;;;3.40;99.90;;;;;;5091200;28;20476;-68
2021/11/13 05:36:40;;;;;;;13.50;11.27;;;3.40;99.90;;;;;;5094468;28;20507;-70
2021/11/13 05:39:08;;;;;;;15.10;10.50;;;3.40;99.90;;;;;;5093896;28;20445;-69
2021/11/13 05:41:35;;;;;;;13.53;9.07;;;3.80;99.90;;;;;;5094562;28;20586;-69
2021/11/13 05:44:02;;;;;;;14.67;11.23;;;3.30;99.90;;;;;;5094105;28;20440;-70
2021/11/13 05:46:30;;;;;;;14.87;11.03;;;3.30;99.90;;;;;;5094074;28;20470;-70
2021/11/13 05:48:57;;;;;;;13.60;10.00;;;3.30;99.90;;;;;;5093796;28;20470;-69
2021/11/13 05:51:24;;;;;;;18.23;10.97;;;3.80;99.90;;;;;;5093563;28;20448;-69
2021/11/13 05:53:51;;;;;;;15.37;10.80;;;3.30;99.90;;;;;;5073707;28;20527;-69
2021/11/13 05:56:18;;;;;;;13.37;10.00;;;3.40;99.90;;;;;;5094532;28;20444;-68
2021/11/13 05:58:45;;;;;;;12.23;10.20;;;3.40;99.90;;;;;;5093907;28;20802;-69
2021/11/13 06:01:11;;;;;;;13.87;11.37;;;3.50;99.90;;;;;;5093993;28;20440;-68
2021/11/13 06:03:40;;;;;;;13.30;10.63;;;3.40;99.90;;;;;;5094106;28;20543;-69
2021/11/13 06:06:07;;;;;;;14.93;11.20;;;3.40;99.90;;;;;;5093510;28;20832;-69
2021/11/13 06:08:34;;;;;;;15.07;11.27;;;3.40;99.90;;;;;;5093479;28;20455;-68
2021/11/13 06:11:00;;;;;;;15.53;11.40;;;3.50;99.90;;;;;;5093492;28;20925;-68
2021/11/13 06:13:27;;;;;;;15.30;11.50;;;3.50;99.90;;;;;;5093681;28;20437;-68
2021/11/13 06:15:54;;;;;;;12.87;11.47;;;3.60;99.90;;;;;;5092955;28;20535;-69
2021/11/13 06:18:21;;;;;;;12.37;10.43;;;3.60;99.90;;;;;;5093022;28;20933;-68
2021/11/13 06:20:49;;;;;;;14.57;11.30;;;3.70;99.90;;;;;;5092847;28;20451;-68
2021/11/13 06:23:16;;;;;;;12.53;10.43;;;3.80;99.90;;;;;;5093748;28;20525;-68
2021/11/13 06:25:43;;;;;;;13.90;10.90;;;3.90;99.90;;;;;;5093074;28;21015;-68
2021/11/13 06:28:10;;;;;;;12.73;11.47;;;3.90;99.90;;;;;;5092743;28;20515;-68
2021/11/13 06:30:37;;;;;;;16.50;10.60;;;3.90;99.90;;;;;;5093686;28;20476;-68
2021/11/13 06:33:04;;;;;;;15.33;11.23;;;4.00;99.90;;;;;;5092788;28;20453;-69
2021/11/13 06:35:31;;;;;;;14.33;10.57;;;4.10;99.90;;;;;;5093070;28;20451;-68
2021/11/13 06:37:59;;;;;;;14.73;9.53;;;4.10;99.90;;;;;;5092587;28;20442;-68
2021/11/13 06:40:26;;;;;;;15.50;11.27;;;4.10;99.90;;;;;;5092911;28;20582;-69
2021/11/13 06:42:53;;;;;;;15.57;11.27;;;4.20;99.90;;;;;;5092371;28;20468;-68
2021/11/13 06:45:20;;;;;;;17.73;10.90;;;4.20;99.90;;;;;;5093065;28;20980;-69
2021/11/13 06:47:48;;;;;;;13.50;10.00;;;4.30;99.90;;;;;;5093199;28;20522;-70
2021/11/13 06:50:15;;;;;;;13.63;9.60;;;4.40;99.90;;;;;;5093320;28;20491;-69
2021/11/13 06:52:42;;;;;;;14.63;10.70;;;4.40;99.90;;;;;;5093076;28;20535;-69
2021/11/13 06:55:11;;;;;;;15.53;9.93;;;4.50;99.90;;;;;;5092651;28;20537;-69
2021/11/13 06:57:39;;;;;;;14.80;11.57;;;4.50;99.90;;;;;;5093038;28;20959;-69
2021/11/13 07:00:09;;;;;;;10.93;9.83;;;4.50;99.90;;;;;;5092275;28;20440;-69
2021/11/13 07:02:36;;;;;;;12.40;9.67;;;4.40;99.90;;;;;;5093143;28;20544;-68
2021/11/13 07:05:03;;;;;;;11.40;9.90;;;4.40;99.90;;;;;;5092127;28;20533;-69
2021/11/13 07:07:32;;;;;;;15.67;11.83;;;4.40;99.90;;;;;;5093160;28;20483;-68
2021/11/13 07:09:59;;;;;;;16.07;11.10;;;4.40;99.90;;;;;;5092368;28;20480;-68
2021/11/13 07:12:27;;;;;;;10.70;9.33;;;4.50;99.90;;;;;;5092771;28;20777;-71
2021/11/13 07:14:54;;;;;;;15.03;10.60;;;4.40;99.90;;;;;;5092003;28;20505;-70
2021/11/13 07:17:21;;;;;;;14.00;10.07;;;4.40;99.90;;;;;;5092865;28;20536;-69
2021/11/13 07:19:49;;;;;;;12.30;9.70;;;4.40;99.90;;;;;;5092852;28;20443;-68
2021/11/13 07:22:16;;;;;;;11.77;10.20;;;4.40;99.90;;;;;;5092736;28;20536;-68
2021/11/13 07:24:43;;;;;;;13.47;11.00;;;4.40;99.90;;;;;;5092692;28;20483;-69
2021/11/13 07:27:11;;;;;;;14.17;10.23;;;4.40;99.90;;;;;;5091771;28;20448;-68
2021/11/13 07:29:44;;;;;;;13.60;10.10;;;4.40;99.90;;;;;;5092594;28;20441;-68
2021/11/13 07:32:11;;;;;;;13.43;9.47;;;4.40;99.90;;;;;;5092082;28;20792;-68
2021/11/13 07:34:38;;;;;;;13.63;10.93;;;4.40;99.90;;;;;;5092671;28;20523;-68
2021/11/13 07:37:05;;;;;;;15.67;10.57;;;4.70;99.90;;;;;;5103370;28;20471;-68
2021/11/13 07:39:32;;;;;;;14.30;9.97;;;4.40;99.90;;;;;;5072191;28;20533;-69
2021/11/13 07:41:59;;;;;;;17.87;11.37;;;4.50;99.90;;;;;;5073888;28;20566;-69
2021/11/13 07:44:26;;;;;;;14.57;11.77;;;4.50;99.90;;;;;;5092294;28;20857;-69
2021/11/13 07:46:55;;;;;;;13.70;10.40;;;4.60;99.90;;;;;;5090638;28;20481;-69
2021/11/13 07:49:22;;;;;;;13.87;10.43;;;4.90;99.90;;;;;;5092031;28;20448;-69
2021/11/13 07:51:50;;;;;;;11.30;9.30;;;4.60;99.90;;;;;;5092217;28;20446;-70
2021/11/13 07:54:17;;;;;;;15.67;10.50;;;4.60;99.90;;;;;;5092225;28;20476;-70
2021/11/13 07:56:44;;;;;;;14.60;10.97;;;4.70;99.90;;;;;;5092232;28;20480;-71
2021/11/13 07:59:13;;;;;;;12.97;9.83;;;4.80;99.90;;;;;;5091509;28;20448;-74
2021/11/13 08:01:40;;;;;;;10.93;8.50;;;5.00;93.50;;;;;;5092028;28;20444;-69
2021/11/13 08:04:08;;;;;;;13.00;9.43;;;5.10;1.00;;;;;;5091706;28;20440;-70
2021/11/13 08:06:35;;;;;;;12.90;10.57;;;5.20;1.00;;;;;;5091947;28;20836;-69
2021/11/13 08:09:03;;;;;;;15.13;10.83;;;5.30;1.00;;;;;;5091381;28;20439;-69
2021/11/13 08:11:30;;;;;;;11.37;9.57;;;5.40;1.00;;;;;;5091771;28;20539;-69
2021/11/13 08:13:57;;;;;;;10.13;8.13;;;5.50;1.00;;;;;;5090976;28;20440;-69
2021/11/13 08:16:24;;;;;;;18.33;9.23;;;5.60;99.90;;;;;;5091817;28;20452;-71
2021/11/13 08:18:51;;;;;;;10.23;9.23;;;5.60;99.90;;;;;;5091592;28;20437;-71
2021/11/13 08:21:21;;;;;;;13.27;8.53;;;5.60;99.90;;;;;;5091832;28;20448;-71
2021/11/13 08:23:48;;;;;;;12.37;9.33;;;5.80;99.90;;;;;;5091244;28;20448;-72
2021/11/13 08:26:14;;;;;;;10.50;8.20;;;5.80;99.90;;;;;;5090779;28;20520;-72
2021/11/13 08:28:41;;;;;;;11.80;8.67;;;5.90;99.90;;;;;;5091737;28;20519;-72
2021/11/13 08:31:09;;;;;;;11.30;7.90;;;6.00;99.90;;;;;;5091113;28;20524;-72
2021/11/13 08:33:36;;;;;;;11.20;8.20;;;6.10;99.90;;;;;;5091279;28;21064;-71
2021/11/13 08:36:02;;;;;;;11.03;8.70;;;6.30;1.00;;;;;;5090761;28;20793;-71
2021/11/13 08:38:31;;;;;;;10.40;7.67;;;6.40;1.00;;;;;;5091526;28;20900;-71
2021/11/13 08:40:59;;;;;;;11.40;7.43;;;6.40;99.90;;;;;;5090375;28;21068;-71
2021/11/13 08:43:26;;;;;;;8.77;7.53;;;6.50;99.90;;;;;;5091138;28;20854;-70
2021/11/13 08:45:54;;;;;;;10.10;7.87;;;6.70;30.70;;;;;;5091371;28;20478;-71
2021/11/13 08:48:21;;;;;;;9.33;7.83;;;6.60;99.90;;;;;;5091090;28;20536;-71
2021/11/13 08:50:50;;;;;;;9.13;7.30;;;6.60;99.90;;;;;;5091390;28;20436;-71
2021/11/13 08:53:17;;;;;;;10.93;7.90;;;6.60;1.00;;;;;;5090741;28;20475;-70
2021/11/13 08:55:45;;;;;;;9.60;8.17;;;6.50;99.90;;;;;;5091118;28;20451;-71
2021/11/13 08:58:13;;;;;;;9.43;7.80;;;6.50;99.90;;;;;;5092767;28;20944;-70
2021/11/13 09:00:43;;;;;;;13.97;8.70;;;6.50;1.00;;;;;;5095311;28;20441;-71
2021/11/13 09:03:19;;;;;;;10.30;8.73;;;6.50;1.00;;;;;;5094841;28;20437;-70
2021/11/13 09:05:46;;;;;;;11.50;8.27;;;6.60;1.00;;;;;;5094950;28;21074;-70
2021/11/13 09:08:14;;;;;;;12.50;8.53;;;6.60;1.00;;;;;;5094670;28;20505;-71
2021/11/13 09:10:42;;;;;;;9.53;8.03;;;6.60;1.00;;;;;;5095087;28;20452;-74
2021/11/13 09:13:11;;;;;;;9.13;7.30;;;6.80;99.90;;;;;;5094925;28;20456;-71
2021/11/13 09:15:38;;;;;;;9.47;7.57;;;6.80;99.90;;;;;;5094852;28;20960;-71
2021/11/13 09:18:06;;;;;;;11.43;8.00;;;6.90;99.90;;;;;;5094549;28;20502;-71
2021/11/13 09:20:33;;;;;;;10.10;8.23;;;7.00;99.90;;;;;;5094220;28;20972;-71
2021/11/13 09:23:00;;;;;;;8.50;6.63;;;7.10;99.90;;;;;;5093910;28;20471;-71
2021/11/13 09:25:27;;;;;;;9.50;8.13;;;7.30;99.90;;;;;;5094035;28;20440;-71
2021/11/13 09:27:55;;;;;;;9.47;7.20;;;7.30;95.80;;;;;;5094047;28;20490;-71
2021/11/13 09:30:28;;;;;;;10.60;7.67;;;7.30;89.30;;;;;;5092928;28;20917;-70
2021/11/13 09:32:55;;;;;;;12.60;6.87;;;7.40;1.00;;;;;;5094529;28;20503;-70
2021/11/13 09:35:23;;;;;;;11.07;7.03;;;7.50;99.90;;;;;;5094148;28;20796;-70
2021/11/13 09:37:51;;;;;;;8.67;7.00;;;7.70;99.90;;;;;;5090190;28;20543;-70
2021/11/13 09:40:19;;;;;;;9.33;5.87;;;7.80;99.90;;;;;;5087541;28;20454;-70
2021/11/13 09:42:47;;;;;;;7.23;6.47;;;;;;;;;;5092150;28;20515;-69
2021/11/13 09:45:15;;;;;;;7.23;6.00;;;;;;;;;;5091378;28;20443;-69
2021/11/13 09:47:44;;;;;;;8.33;6.80;;;;;;;;;;5091791;28;20844;-69
2021/11/13 09:50:14;;;;;;;8.83;6.93;;;;;;;;;;5078825;28;20442;-69
2021/11/13 09:52:42;;;;;;;8.17;6.83;;;;;;;;;;5092084;28;20436;-69
2021/11/13 09:55:11;;;;;;;7.37;6.17;;;;;;;;;;5089771;28;20448;-69
2021/11/13 09:57:39;;;;;;;12.70;6.40;;;;;;;;;;5091657;28;20472;-70
2021/11/13 10:00:07;;;;;;;6.60;5.10;;;;;;;;;;5090920;28;20433;-69
2021/11/13 10:02:34;;;;;;;9.30;5.97;;;;;;;;;;5091498;28;20535;-69
2021/11/13 10:05:03;;;;;;;7.13;6.10;;;;;;;;;;5090298;28;20448;-68
2021/11/13 10:07:33;;;;;;;8.10;5.93;;;;;;;;;;5091426;28;20567;-69
2021/11/13 10:10:01;;;;;;;9.63;6.00;;;;;;;;;;5090864;28;20440;-69
2021/11/13 10:12:38;;;;;;;9.23;6.87;;;;;;;;;;5083063;28;20449;-69
2021/11/13 10:15:20;;;;;;;7.20;6.37;;;;;;;;;;5089884;28;20502;-69
2021/11/13 10:18:04;;;;;;;6.33;5.63;;;;;;;;;;5091181;28;20447;-70
2021/11/13 10:20:33;;;;;;;6.37;5.43;;;;;;;;;;5091237;28;20471;-69
2021/11/13 10:23:00;;;;;;;6.83;5.33;;;;;;;;;;5091074;28;20972;-69
2021/11/13 10:25:28;;;;;;;7.00;6.00;;;;;;;;;;5090137;28;20476;-69
2021/11/13 10:28:11;;;;;;;7.10;5.87;;;;;;;;;;5090906;28;21027;-69
2021/11/13 10:30:39;;;;;;;8.70;6.37;;;;;;;;;;5091331;28;20444;-69
2021/11/13 10:33:06;;;;;;;6.57;5.23;;;;;;;;;;5090559;28;20440;-69
2021/11/13 10:35:41;;;;;;;8.97;5.73;;;;;;;;;;5090985;28;20436;-69
2021/11/13 10:38:12;;;;;;;6.70;5.70;;;;;;;;;;5090195;28;20901;-69
2021/11/13 10:40:48;;;;;;;6.63;5.50;;;;;;;;;;5090982;28;20507;-69
2021/11/13 10:43:15;;;;;;;5.57;4.47;;;;;;;;;;5094266;28;21232;-69
2021/11/13 10:45:43;;;;;;;7.60;6.77;;;;;;;;;;5099104;27;20528;-69
2021/11/13 10:48:20;;;;;;;8.30;6.00;;;;;;;;;;5089845;28;20456;-69
2021/11/13 10:50:49;;;;;;;7.03;5.50;;;;;;;;;;5090939;28;20429;-69
2021/11/13 10:53:24;;;;;;;7.00;6.30;;;;;;;;;;5089843;28;20822;-69
2021/11/13 10:56:02;;;;;;;9.73;8.73;;;;;;;;;;5088925;28;20526;-69
2021/11/13 10:58:30;;;;;;;11.50;8.93;;;;;;;;;;5089121;28;20516;-69
2021/11/13 11:00:57;;;;;;;11.03;9.37;;;;;;;;;;5090153;28;20933;-69
2021/11/13 11:03:30;;;;;;;10.80;9.30;;;;;;;;;;5090214;28;20547;-71
2021/11/13 11:05:58;;;;;;;14.67;10.70;;;;;;;;;;5087784;28;20968;-69
2021/11/13 11:08:27;;;;;;;13.07;9.33;;;;;;;;;;5089869;28;20478;-69
2021/11/13 11:10:54;;;;;;;10.07;9.07;;;;;;;;;;5090190;28;20453;-69
2021/11/13 11:13:36;;;;;;;11.60;9.70;;;;;;;;;;5089444;28;20437;-69
2021/11/13 11:16:03;;;;;;;13.60;10.23;;;;;;;;;;5090234;28;20528;-69
2021/11/13 11:18:53;;;;;;;12.50;9.80;;;;;;;;;;5090575;28;20441;-70
2021/11/13 11:21:35;;;;;;;14.10;9.50;;;;;;;;;;5088709;28;20460;-71
2021/11/13 11:24:10;;;;;;;15.93;10.50;;;;;;;;;;5090341;28;20440;-69
2021/11/13 11:26:37;;;;;;;13.90;11.47;;;;;;;;;;5089681;28;20821;-69
2021/11/13 11:29:05;;;;;;;12.07;10.00;;;;;;;;;;5089641;28;20443;-69
2021/11/13 11:31:40;;;;;;;13.53;12.10;;;;;;;;;;5090090;28;20453;-69
2021/11/13 11:34:07;;;;;;;13.13;10.40;;;;;;;;;;5089352;28;20461;-69
2021/11/13 11:36:34;;;;;;;17.00;11.90;;;;;;;;;;5087549;28;20495;-69
2021/11/13 11:39:02;;;;;;;12.10;10.80;;;;;;;;;;5090128;28;20811;-69
2021/11/13 11:41:30;;;;;;;11.00;9.80;;;;;;;;;;5089293;28;20476;-69
2021/11/13 11:43:59;;;;;;;15.50;11.00;;;;;;;;;;5089288;28;20437;-71
2021/11/13 11:46:27;;;;;;;10.93;9.83;;;;;;;;;;5088720;28;20575;-69
2021/11/13 11:48:55;;;;;;;14.60;10.40;;;;;;;;;;5089383;28;20444;-70
2021/11/13 11:51:22;;;;;;;13.90;9.87;;;;;;;;;;5089398;28;20429;-72
2021/11/13 11:53:49;;;;;;;13.40;10.70;;;;;;;;;;5089615;28;20540;-69
2021/11/13 11:56:17;;;;;;;15.40;10.57;;;;;;;;;;5087041;28;20883;-69
2021/11/13 11:58:45;;;;;;;14.00;10.50;;;;;;;;;;5089086;28;20531;-70
2021/11/13 12:01:24;;;;;;;12.87;10.10;;;;;;;;;;5088085;28;20491;-69
2021/11/13 12:03:52;;;;;;;12.77;9.57;;;;;;;;;;5089540;28;20428;-70
2021/11/13 12:06:19;;;;;;;11.33;9.97;;;;;;;;;;5088674;28;20440;-70
2021/11/13 12:09:02;;;;;;;12.03;10.20;;;;;;;;;;5089311;28;20476;-70
2021/11/13 12:11:34;;;;;;;14.50;10.27;;;;;;;;;;5088989;28;20456;-70
2021/11/13 12:14:23;;;;;;;13.20;10.40;;;;;;;;;;5088541;28;20436;-69
2021/11/13 12:16:50;;;;;;;12.33;9.93;;;;;;;;;;5085326;28;20533;-70
2021/11/13 12:19:17;;;;;;;15.10;10.50;;;;;;;;;;5090859;28;20544;-72
2021/11/13 12:21:53;;;;;;;12.53;11.20;;;;;;;;;;5091852;28;20444;-71
2021/11/13 12:24:20;;;;;;;15.70;10.70;;;;;;;;;;5090399;28;20991;-71
2021/11/13 12:26:59;;;;;;;12.13;10.27;;;;;;;;;;5091544;28;20574;-71
2021/11/13 12:29:29;;;;;;;13.73;10.27;;;;;;;;;;5091063;28;20437;-71
2021/11/13 12:31:57;;;;;;;14.33;10.27;;;;;;;;;;5091529;28;20812;-71
2021/11/13 12:34:29;;;;;;;13.07;10.70;;;;;;;;;;5090964;28;20459;-70
2021/11/13 12:37:00;;;;;;;11.67;10.13;;;;;;;;;;5091681;28;20469;-71
2021/11/13 12:39:28;;;;;;;15.43;11.60;;;;;;;;;;5090990;28;20425;-71
2021/11/13 12:42:04;;;;;;;14.20;10.10;;;;;;;;;;5091522;28;20476;-70
2021/11/13 12:44:35;;;;;;;15.03;12.70;;;;;;;;;;5090687;28;20432;-70
2021/11/13 12:47:12;;;;;;;14.70;12.13;;;;;;;;;;5091187;28;20939;-73
2021/11/13 12:49:50;;;;;;;11.67;10.17;;;;;;;;;;5090660;28;20467;-70
2021/11/13 12:52:19;;;;;;;14.93;12.30;;;;;;;;;;5090308;28;20471;-71
2021/11/13 12:55:05;;;;;;;15.23;11.00;;;;;;;;;;5094156;28;20823;-71
2021/11/13 12:57:34;;;;;;;16.07;11.10;;;;;;;;;;5090055;28;20920;-71
2021/11/13 13:00:06;;;;;;;12.73;10.80;;;;;;;;;;5091066;28;20484;-71
2021/11/13 13:02:34;;;;;;;13.30;11.50;;;;;;;;;;5090694;28;20433;-71
2021/11/13 13:05:02;;;;;;;17.90;13.30;;;;;;;;;;5091212;28;20446;-71
2021/11/13 13:07:29;;;;;;;18.00;14.87;;;;;;;;;;5090343;28;20468;-71
2021/11/13 13:09:57;;;;;;;21.30;14.90;;;;;;;;;;5091275;28;20440;-71
2021/11/13 13:12:25;;;;;;;18.90;13.80;;;;;;;;;;5090463;28;20527;-72